sensor_id;sensor_type;location;lat;lon;timestamp;pressure;altitude;pressure_sealevel;temperature;humidity
46111;BME280;31849;55.992;37.252;2023-07-20T00:02:43;97671.03;;;14.54;61.89
46111;BME280;31849;55.992;37.252;2023-07-20T00:07:47;97682.38;;;14.53;62.00
46111;BME280;31849;55.992;37.252;2023-07-20T00:12:54;97690.88;;;14.58;62.07
46111;BME280;31849;55.992;37.252;2023-07-20T00:17:59;97693.38;;;14.42;61.84
46111;BME280;31849;55.992;37.252;2023-07-20T00:23:03;97696.19;;;14.37;62.32
46111;BME280;31849;55.992;37.252;2023-07-20T00:28:06;97695.06;;;14.43;62.28
46111;BME280;31849;55.992;37.252;2023-07-20T00:33:12;97708.53;;;14.53;62.39
46111;BME280;31849;55.992;37.252;2023-07-20T00:38:15;97707.56;;;14.55;62.35
46111;BME280;31849;55.992;37.252;2023-07-20T00:43:19;97712.53;;;14.62;62.01
46111;BME280;31849;55.992;37.252;2023-07-20T00:48:25;97720.78;;;14.52;62.31
46111;BME280;31849;55.992;37.252;2023-07-20T00:53:29;97718.09;;;14.54;62.21
46111;BME280;31849;55.992;37.252;2023-07-20T00:58:33;97718.78;;;14.38;62.14
46111;BME280;31849;55.992;37.252;2023-07-20T01:03:38;97718.31;;;14.30;62.62
46111;BME280;31849;55.992;37.252;2023-07-20T01:08:47;97716.19;;;14.19;62.49
46111;BME280;31849;55.992;37.252;2023-07-20T01:13:55;97717.78;;;14.22;62.47
46111;BME280;31849;55.992;37.252;2023-07-20T01:19:00;97696.47;;;14.12;62.79
46111;BME280;31849;55.992;37.252;2023-07-20T01:24:32;97723.59;;;14.29;62.83
46111;BME280;31849;55.992;37.252;2023-07-20T01:29:54;97721.97;;;14.26;63.13
46111;BME280;31849;55.992;37.252;2023-07-20T01:35:08;97724.38;;;14.31;62.76
46111;BME280;31849;55.992;37.252;2023-07-20T01:40:17;97720.41;;;14.22;62.51
46111;BME280;31849;55.992;37.252;2023-07-20T01:45:21;97715.97;;;14.24;63.16
46111;BME280;31849;55.992;37.252;2023-07-20T01:50:26;97709.34;;;14.36;62.59
46111;BME280;31849;55.992;37.252;2023-07-20T01:55:29;97707.69;;;14.33;62.46
46111;BME280;31849;55.992;37.252;2023-07-20T02:00:33;97715.47;;;14.35;62.09
46111;BME280;31849;55.992;37.252;2023-07-20T02:05:38;97701.13;;;14.43;62.38
46111;BME280;31849;55.992;37.252;2023-07-20T02:10:42;97700.78;;;14.51;61.91
46111;BME280;31849;55.992;37.252;2023-07-20T02:15:48;97712.78;;;14.55;61.66
46111;BME280;31849;55.992;37.252;2023-07-20T02:20:54;97713.63;;;14.56;61.95
46111;BME280;31849;55.992;37.252;2023-07-20T02:25:58;97721.31;;;14.59;62.13
46111;BME280;31849;55.992;37.252;2023-07-20T02:31:02;97727.66;;;14.55;62.19
46111;BME280;31849;55.992;37.252;2023-07-20T02:36:07;97727.25;;;14.64;62.10
46111;BME280;31849;55.992;37.252;2023-07-20T02:41:10;97727.56;;;14.75;61.70
46111;BME280;31849;55.992;37.252;2023-07-20T02:46:14;97736.59;;;14.87;61.56
46111;BME280;31849;55.992;37.252;2023-07-20T02:51:19;97746.59;;;14.98;61.01
46111;BME280;31849;55.992;37.252;2023-07-20T02:56:23;97746.50;;;15.00;60.92
46111;BME280;31849;55.992;37.252;2023-07-20T03:01:27;97746.66;;;15.14;60.28
46111;BME280;31849;55.992;37.252;2023-07-20T03:06:32;97750.59;;;15.05;60.62
46111;BME280;31849;55.992;37.252;2023-07-20T03:11:38;97737.75;;;15.18;59.90
46111;BME280;31849;55.992;37.252;2023-07-20T03:16:42;97754.72;;;15.28;59.72
46111;BME280;31849;55.992;37.252;2023-07-20T03:21:47;97759.41;;;15.39;59.57
46111;BME280;31849;55.992;37.252;2023-07-20T03:26:50;97761.13;;;16.10;58.17
46111;BME280;31849;55.992;37.252;2023-07-20T03:31:54;97760.28;;;17.39;55.14
46111;BME280;31849;55.992;37.252;2023-07-20T03:36:59;97763.81;;;17.54;55.06
46111;BME280;31849;55.992;37.252;2023-07-20T03:42:03;97763.13;;;17.81;54.62
46111;BME280;31849;55.992;37.252;2023-07-20T03:47:08;97761.50;;;17.94;54.04
46111;BME280;31849;55.992;37.252;2023-07-20T03:52:13;97759.50;;;18.70;52.47
46111;BME280;31849;55.992;37.252;2023-07-20T03:57:17;97764.47;;;19.71;50.03
46111;BME280;31849;55.992;37.252;2023-07-20T04:02:21;97767.56;;;24.00;40.46
46111;BME280;31849;55.992;37.252;2023-07-20T04:07:26;97778.41;;;27.49;34.35
46111;BME280;31849;55.992;37.252;2023-07-20T04:12:29;97764.66;;;29.69;30.62
46111;BME280;31849;55.992;37.252;2023-07-20T04:17:33;97773.09;;;31.43;28.69
46111;BME280;31849;55.992;37.252;2023-07-20T04:22:38;97772.13;;;32.58;26.68
46111;BME280;31849;55.992;37.252;2023-07-20T04:27:42;97776.72;;;33.09;25.89
46111;BME280;31849;55.992;37.252;2023-07-20T04:32:45;97774.84;;;35.02;23.54
46111;BME280;31849;55.992;37.252;2023-07-20T04:37:51;97779.75;;;32.54;26.26
46111;BME280;31849;55.992;37.252;2023-07-20T04:42:54;97773.38;;;30.45;28.89
46111;BME280;31849;55.992;37.252;2023-07-20T04:47:58;97772.03;;;28.83;30.87
46111;BME280;31849;55.992;37.252;2023-07-20T04:53:03;97751.06;;;27.92;31.54
46111;BME280;31849;55.992;37.252;2023-07-20T04:58:07;97784.06;;;29.46;29.78
46111;BME280;31849;55.992;37.252;2023-07-20T05:03:11;97798.06;;;31.51;26.99
46111;BME280;31849;55.992;37.252;2023-07-20T05:08:16;97798.94;;;35.04;22.85
46111;BME280;31849;55.992;37.252;2023-07-20T05:13:20;97804.56;;;36.65;20.82
46111;BME280;31849;55.992;37.252;2023-07-20T05:18:23;97794.59;;;36.38;20.18
46111;BME280;31849;55.992;37.252;2023-07-20T05:23:29;97793.88;;;38.93;18.65
46111;BME280;31849;55.992;37.252;2023-07-20T05:28:32;97799.47;;;38.36;18.53
46111;BME280;31849;55.992;37.252;2023-07-20T05:33:36;97801.31;;;40.43;17.04
46111;BME280;31849;55.992;37.252;2023-07-20T05:38:41;97801.53;;;42.04;15.93
46111;BME280;31849;55.992;37.252;2023-07-20T05:43:44;97806.72;;;41.43;15.64
46111;BME280;31849;55.992;37.252;2023-07-20T05:48:49;97803.19;;;40.31;16.58
46111;BME280;31849;55.992;37.252;2023-07-20T05:53:54;97787.47;;;36.77;19.62
46111;BME280;31849;55.992;37.252;2023-07-20T05:58:57;97798.97;;;36.26;20.70
46111;BME280;31849;55.992;37.252;2023-07-20T06:04:01;97815.50;;;37.55;18.79
46111;BME280;31849;55.992;37.252;2023-07-20T06:09:07;97806.28;;;40.82;16.06
46111;BME280;31849;55.992;37.252;2023-07-20T06:14:14;97807.03;;;42.21;14.84
46111;BME280;31849;55.992;37.252;2023-07-20T06:19:18;97808.53;;;42.68;14.57
46111;BME280;31849;55.992;37.252;2023-07-20T06:24:22;97813.22;;;41.71;14.53
46111;BME280;31849;55.992;37.252;2023-07-20T06:29:26;97806.69;;;42.96;13.74
46111;BME280;31849;55.992;37.252;2023-07-20T06:34:30;97820.78;;;43.81;12.67
46111;BME280;31849;55.992;37.252;2023-07-20T06:39:40;97814.16;;;43.22;12.85
46111;BME280;31849;55.992;37.252;2023-07-20T06:44:46;97802.28;;;42.33;12.72
46111;BME280;31849;55.992;37.252;2023-07-20T06:49:50;97807.16;;;41.52;13.34
46111;BME280;31849;55.992;37.252;2023-07-20T06:54:55;97796.53;;;42.52;13.07
46111;BME280;31849;55.992;37.252;2023-07-20T07:00:06;97799.06;;;42.98;13.05
46111;BME280;31849;55.992;37.252;2023-07-20T07:05:10;97805.16;;;42.44;12.06
46111;BME280;31849;55.992;37.252;2023-07-20T07:10:19;97804.75;;;42.01;13.54
46111;BME280;31849;55.992;37.252;2023-07-20T07:15:23;97796.56;;;41.55;13.71
46111;BME280;31849;55.992;37.252;2023-07-20T07:20:29;97805.66;;;40.79;13.58
46111;BME280;31849;55.992;37.252;2023-07-20T07:25:34;97805.31;;;41.40;12.80
46111;BME280;31849;55.992;37.252;2023-07-20T07:30:38;97813.47;;;41.11;13.06
46111;BME280;31849;55.992;37.252;2023-07-20T07:35:42;97801.31;;;40.90;13.11
46111;BME280;31849;55.992;37.252;2023-07-20T07:40:47;97803.50;;;41.17;12.97
46111;BME280;31849;55.992;37.252;2023-07-20T07:45:54;97807.16;;;41.11;12.93
46111;BME280;31849;55.992;37.252;2023-07-20T07:50:57;97808.38;;;40.08;13.18
46111;BME280;31849;55.992;37.252;2023-07-20T07:56:03;97799.53;;;39.59;13.34
46111;BME280;31849;55.992;37.252;2023-07-20T08:01:06;97796.97;;;39.46;13.99
46111;BME280;31849;55.992;37.252;2023-07-20T08:06:10;97805.41;;;38.26;14.71
46111;BME280;31849;55.992;37.252;2023-07-20T08:11:16;97798.28;;;36.91;16.27
46111;BME280;31849;55.992;37.252;2023-07-20T08:16:21;97797.31;;;36.45;17.05
46111;BME280;31849;55.992;37.252;2023-07-20T08:21:25;97797.63;;;33.22;19.61
46111;BME280;31849;55.992;37.252;2023-07-20T08:26:30;97809.91;;;31.88;21.00
46111;BME280;31849;55.992;37.252;2023-07-20T08:31:34;97792.63;;;29.75;23.62
46111;BME280;31849;55.992;37.252;2023-07-20T08:36:37;97803.56;;;28.53;24.89
46111;BME280;31849;55.992;37.252;2023-07-20T08:41:43;97812.13;;;28.31;25.82
46111;BME280;31849;55.992;37.252;2023-07-20T08:46:47;97804.09;;;27.68;26.73
46111;BME280;31849;55.992;37.252;2023-07-20T08:51:54;97809.06;;;27.17;27.89
46111;BME280;31849;55.992;37.252;2023-07-20T08:57:02;97827.25;;;26.09;30.02
46111;BME280;31849;55.992;37.252;2023-07-20T09:02:08;97822.97;;;26.36;30.18
46111;BME280;31849;55.992;37.252;2023-07-20T09:07:19;97818.69;;;26.73;30.11
46111;BME280;31849;55.992;37.252;2023-07-20T09:12:25;97813.75;;;26.78;30.58
46111;BME280;31849;55.992;37.252;2023-07-20T09:17:29;97809.53;;;26.85;30.42
46111;BME280;31849;55.992;37.252;2023-07-20T09:22:32;97820.84;;;26.97;30.40
46111;BME280;31849;55.992;37.252;2023-07-20T09:27:38;97825.56;;;26.75;30.88
46111;BME280;31849;55.992;37.252;2023-07-20T09:32:46;97838.47;;;26.03;31.54
46111;BME280;31849;55.992;37.252;2023-07-20T09:37:54;97843.94;;;24.81;33.36
46111;BME280;31849;55.992;37.252;2023-07-20T09:43:03;97824.47;;;24.50;33.19
46111;BME280;31849;55.992;37.252;2023-07-20T09:48:14;97844.63;;;24.83;32.38
46111;BME280;31849;55.992;37.252;2023-07-20T09:53:25;97842.06;;;25.53;32.45
46111;BME280;31849;55.992;37.252;2023-07-20T09:58:31;97840.66;;;24.68;33.92
46111;BME280;31849;55.992;37.252;2023-07-20T10:03:37;97841.06;;;24.21;34.42
46111;BME280;31849;55.992;37.252;2023-07-20T10:08:42;97839.56;;;24.70;34.36
46111;BME280;31849;55.992;37.252;2023-07-20T10:13:53;97829.50;;;24.53;34.44
46111;BME280;31849;55.992;37.252;2023-07-20T10:19:03;97830.94;;;24.57;34.92
46111;BME280;31849;55.992;37.252;2023-07-20T10:24:18;97825.59;;;25.19;34.86
46111;BME280;31849;55.992;37.252;2023-07-20T10:29:24;97828.47;;;25.06;33.88
46111;BME280;31849;55.992;37.252;2023-07-20T10:34:31;97810.22;;;25.22;33.58
46111;BME280;31849;55.992;37.252;2023-07-20T10:39:35;97820.22;;;25.69;33.34
46111;BME280;31849;55.992;37.252;2023-07-20T10:44:40;97820.19;;;25.30;33.50
46111;BME280;31849;55.992;37.252;2023-07-20T10:50:00;97804.25;;;24.99;33.83
46111;BME280;31849;55.992;37.252;2023-07-20T10:55:11;97817.72;;;25.07;34.04
46111;BME280;31849;55.992;37.252;2023-07-20T11:00:19;97821.38;;;25.16;33.15
46111;BME280;31849;55.992;37.252;2023-07-20T11:05:38;97820.94;;;25.71;32.19
46111;BME280;31849;55.992;37.252;2023-07-20T11:10:43;97818.38;;;25.70;32.57
46111;BME280;31849;55.992;37.252;2023-07-20T11:16:01;97832.59;;;25.20;33.54
46111;BME280;31849;55.992;37.252;2023-07-20T11:21:08;97845.84;;;24.48;36.48
46111;BME280;31849;55.992;37.252;2023-07-20T11:26:13;97882.38;;;23.15;41.53
46111;BME280;31849;55.992;37.252;2023-07-20T11:31:19;97872.94;;;21.83;44.31
46111;BME280;31849;55.992;37.252;2023-07-20T11:36:23;97884.88;;;21.28;47.14
46111;BME280;31849;55.992;37.252;2023-07-20T11:41:30;97910.03;;;20.56;48.68
46111;BME280;31849;55.992;37.252;2023-07-20T11:46:36;97895.25;;;20.41;50.63
46111;BME280;31849;55.992;37.252;2023-07-20T11:51:40;97895.81;;;20.71;50.55
46111;BME280;31849;55.992;37.252;2023-07-20T11:56:44;97895.63;;;21.50;50.02
46111;BME280;31849;55.992;37.252;2023-07-20T12:01:52;97891.66;;;22.04;49.87
46111;BME280;31849;55.992;37.252;2023-07-20T12:06:56;97882.28;;;22.36;48.63
46111;BME280;31849;55.992;37.252;2023-07-20T12:12:09;97879.94;;;22.31;49.05
46111;BME280;31849;55.992;37.252;2023-07-20T12:17:16;97850.28;;;21.68;49.46
46111;BME280;31849;55.992;37.252;2023-07-20T12:22:20;97874.84;;;21.57;49.92
46111;BME280;31849;55.992;37.252;2023-07-20T12:27:27;97878.88;;;21.50;51.28
46111;BME280;31849;55.992;37.252;2023-07-20T12:32:32;97869.25;;;21.49;50.85
46111;BME280;31849;55.992;37.252;2023-07-20T12:37:37;97888.94;;;21.57;49.77
46111;BME280;31849;55.992;37.252;2023-07-20T12:42:40;97873.16;;;21.19;47.82
46111;BME280;31849;55.992;37.252;2023-07-20T12:47:45;97884.19;;;21.37;47.30
46111;BME280;31849;55.992;37.252;2023-07-20T12:52:50;97869.25;;;21.49;46.87
46111;BME280;31849;55.992;37.252;2023-07-20T12:57:53;97876.22;;;21.50;46.16
46111;BME280;31849;55.992;37.252;2023-07-20T13:02:59;97880.03;;;21.08;46.33
46111;BME280;31849;55.992;37.252;2023-07-20T13:08:09;97910.91;;;20.82;48.30
46111;BME280;31849;55.992;37.252;2023-07-20T13:13:16;97913.13;;;20.10;50.56
46111;BME280;31849;55.992;37.252;2023-07-20T13:18:21;97906.41;;;20.18;50.84
46111;BME280;31849;55.992;37.252;2023-07-20T13:23:25;97909.50;;;20.51;51.62
46111;BME280;31849;55.992;37.252;2023-07-20T13:28:29;97900.13;;;20.85;49.74
46111;BME280;31849;55.992;37.252;2023-07-20T13:33:33;97907.66;;;20.79;50.66
46111;BME280;31849;55.992;37.252;2023-07-20T13:38:40;97899.31;;;20.85;50.69
46111;BME280;31849;55.992;37.252;2023-07-20T13:43:44;97899.41;;;20.70;51.04
46111;BME280;31849;55.992;37.252;2023-07-20T13:48:49;97905.84;;;20.66;51.18
46111;BME280;31849;55.992;37.252;2023-07-20T13:53:56;97896.69;;;20.32;52.66
46111;BME280;31849;55.992;37.252;2023-07-20T13:59:20;97880.44;;;20.25;52.42
46111;BME280;31849;55.992;37.252;2023-07-20T14:04:25;97893.66;;;20.51;51.17
46111;BME280;31849;55.992;37.252;2023-07-20T14:09:29;97897.25;;;20.50;50.98
46111;BME280;31849;55.992;37.252;2023-07-20T14:14:33;97861.78;;;20.28;50.99
46111;BME280;31849;55.992;37.252;2023-07-20T14:19:38;97877.72;;;20.91;49.69
46111;BME280;31849;55.992;37.252;2023-07-20T14:24:44;97889.25;;;21.40;48.76
46111;BME280;31849;55.992;37.252;2023-07-20T14:29:48;97874.53;;;21.62;47.87
46111;BME280;31849;55.992;37.252;2023-07-20T14:34:54;97872.41;;;21.54;47.53
46111;BME280;31849;55.992;37.252;2023-07-20T14:39:57;97868.66;;;21.32;47.18
46111;BME280;31849;55.992;37.252;2023-07-20T14:45:02;97879.28;;;21.19;47.62
46111;BME280;31849;55.992;37.252;2023-07-20T14:50:09;97873.28;;;21.04;47.16
46111;BME280;31849;55.992;37.252;2023-07-20T14:55:12;97880.59;;;21.01;47.61
46111;BME280;31849;55.992;37.252;2023-07-20T15:00:17;97877.34;;;20.84;46.71
46111;BME280;31849;55.992;37.252;2023-07-20T15:05:27;97859.16;;;20.67;46.49
46111;BME280;31849;55.992;37.252;2023-07-20T15:10:31;97882.16;;;20.65;46.23
46111;BME280;31849;55.992;37.252;2023-07-20T15:15:36;97879.44;;;20.66;46.30
46111;BME280;31849;55.992;37.252;2023-07-20T15:20:41;97876.13;;;20.63;46.05
46111;BME280;31849;55.992;37.252;2023-07-20T15:25:45;97892.91;;;20.62;45.86
46111;BME280;31849;55.992;37.252;2023-07-20T15:30:49;97896.31;;;20.51;44.78
46111;BME280;31849;55.992;37.252;2023-07-20T15:35:54;97900.19;;;20.45;45.21
46111;BME280;31849;55.992;37.252;2023-07-20T15:40:58;97895.03;;;20.44;45.22
46111;BME280;31849;55.992;37.252;2023-07-20T15:46:10;97887.63;;;20.36;45.10
46111;BME280;31849;55.992;37.252;2023-07-20T15:51:32;97872.22;;;20.30;44.22
46111;BME280;31849;55.992;37.252;2023-07-20T15:56:36;97893.03;;;20.34;43.98
46111;BME280;31849;55.992;37.252;2023-07-20T16:01:41;97893.84;;;20.35;43.95
46111;BME280;31849;55.992;37.252;2023-07-20T16:06:48;97887.59;;;20.23;43.39
46111;BME280;31849;55.992;37.252;2023-07-20T16:11:52;97896.38;;;20.24;43.37
46111;BME280;31849;55.992;37.252;2023-07-20T16:16:56;97895.53;;;20.10;43.66
46111;BME280;31849;55.992;37.252;2023-07-20T16:22:02;97883.78;;;20.01;43.65
46111;BME280;31849;55.992;37.252;2023-07-20T16:27:07;97914.72;;;20.12;43.86
46111;BME280;31849;55.992;37.252;2023-07-20T16:32:10;97911.34;;;20.10;44.08
46111;BME280;31849;55.992;37.252;2023-07-20T16:37:15;97911.88;;;20.15;43.99
46111;BME280;31849;55.992;37.252;2023-07-20T16:42:22;97917.78;;;20.06;44.52
46111;BME280;31849;55.992;37.252;2023-07-20T16:47:29;97925.22;;;19.99;44.55
46111;BME280;31849;55.992;37.252;2023-07-20T16:52:34;97926.78;;;19.89;44.44
46111;BME280;31849;55.992;37.252;2023-07-20T16:57:37;97926.91;;;19.73;45.09
46111;BME280;31849;55.992;37.252;2023-07-20T17:02:41;97928.78;;;19.71;45.22
46111;BME280;31849;55.992;37.252;2023-07-20T17:07:46;97945.28;;;19.60;45.60
46111;BME280;31849;55.992;37.252;2023-07-20T17:12:57;97952.09;;;19.50;45.57
46111;BME280;31849;55.992;37.252;2023-07-20T17:18:01;97950.44;;;19.35;46.04
46111;BME280;31849;55.992;37.252;2023-07-20T17:23:06;97946.28;;;19.16;46.69
46111;BME280;31849;55.992;37.252;2023-07-20T17:28:09;97963.06;;;19.01;47.18
46111;BME280;31849;55.992;37.252;2023-07-20T17:33:16;97966.50;;;18.87;47.42
46111;BME280;31849;55.992;37.252;2023-07-20T17:38:21;97965.59;;;18.72;47.61
46111;BME280;31849;55.992;37.252;2023-07-20T17:43:28;97968.97;;;18.59;48.45
46111;BME280;31849;55.992;37.252;2023-07-20T17:48:32;97971.13;;;18.53;48.62
46111;BME280;31849;55.992;37.252;2023-07-20T17:53:37;97968.53;;;18.37;48.92
46111;BME280;31849;55.992;37.252;2023-07-20T17:58:41;97955.09;;;18.11;49.55
46111;BME280;31849;55.992;37.252;2023-07-20T18:03:45;97968.56;;;17.90;50.38
46111;BME280;31849;55.992;37.252;2023-07-20T18:08:50;97965.63;;;17.63;51.09
46111;BME280;31849;55.992;37.252;2023-07-20T18:13:54;97978.34;;;17.39;51.90
46111;BME280;31849;55.992;37.252;2023-07-20T18:18:59;97978.47;;;17.20;52.13
46111;BME280;31849;55.992;37.252;2023-07-20T18:24:05;97968.78;;;17.04;52.74
46111;BME280;31849;55.992;37.252;2023-07-20T18:29:08;97968.03;;;16.85;53.49
46111;BME280;31849;55.992;37.252;2023-07-20T18:34:12;97963.84;;;16.81;53.00
46111;BME280;31849;55.992;37.252;2023-07-20T18:39:17;97958.47;;;16.66;53.66
46111;BME280;31849;55.992;37.252;2023-07-20T18:44:21;97952.38;;;16.48;53.97
46111;BME280;31849;55.992;37.252;2023-07-20T18:49:24;97957.31;;;16.37;54.25
46111;BME280;31849;55.992;37.252;2023-07-20T18:54:30;97944.28;;;16.35;54.62
46111;BME280;31849;55.992;37.252;2023-07-20T18:59:34;97935.97;;;16.27;54.66
46111;BME280;31849;55.992;37.252;2023-07-20T19:04:37;97947.19;;;16.12;55.10
46111;BME280;31849;55.992;37.252;2023-07-20T19:09:43;97959.88;;;15.85;55.33
46111;BME280;31849;55.992;37.252;2023-07-20T19:14:46;97957.66;;;15.75;55.94
46111;BME280;31849;55.992;37.252;2023-07-20T19:19:50;97953.25;;;15.76;55.58
46111;BME280;31849;55.992;37.252;2023-07-20T19:24:55;97956.34;;;15.86;55.49
46111;BME280;31849;55.992;37.252;2023-07-20T19:29:59;97958.00;;;15.87;55.87
46111;BME280;31849;55.992;37.252;2023-07-20T19:35:05;97953.63;;;15.68;56.14
46111;BME280;31849;55.992;37.252;2023-07-20T19:40:10;97951.66;;;15.54;56.91
46111;BME280;31849;55.992;37.252;2023-07-20T19:45:14;97949.69;;;15.59;55.89
46111;BME280;31849;55.992;37.252;2023-07-20T19:50:18;97947.13;;;15.58;56.02
46111;BME280;31849;55.992;37.252;2023-07-20T19:55:23;97954.22;;;15.56;56.22
46111;BME280;31849;55.992;37.252;2023-07-20T20:00:27;97953.34;;;15.55;55.85
46111;BME280;31849;55.992;37.252;2023-07-20T20:05:34;97954.91;;;15.59;55.64
46111;BME280;31849;55.992;37.252;2023-07-20T20:10:41;97953.22;;;15.58;55.66
46111;BME280;31849;55.992;37.252;2023-07-20T20:15:48;97966.31;;;15.58;55.79
46111;BME280;31849;55.992;37.252;2023-07-20T20:20:53;97976.44;;;15.47;55.79
46111;BME280;31849;55.992;37.252;2023-07-20T20:26:00;97976.91;;;15.36;55.88
46111;BME280;31849;55.992;37.252;2023-07-20T20:31:04;97980.81;;;15.27;56.27
46111;BME280;31849;55.992;37.252;2023-07-20T20:36:08;97986.97;;;15.26;56.28
46111;BME280;31849;55.992;37.252;2023-07-20T20:41:13;97990.59;;;15.24;56.16
46111;BME280;31849;55.992;37.252;2023-07-20T20:46:17;97990.59;;;15.24;56.46
46111;BME280;31849;55.992;37.252;2023-07-20T20:51:23;97992.44;;;15.22;56.34
46111;BME280;31849;55.992;37.252;2023-07-20T20:56:28;97987.13;;;15.23;56.25
46111;BME280;31849;55.992;37.252;2023-07-20T21:01:32;97992.22;;;15.26;56.02
46111;BME280;31849;55.992;37.252;2023-07-20T21:06:37;98004.59;;;15.23;56.23
46111;BME280;31849;55.992;37.252;2023-07-20T21:11:42;97995.81;;;15.24;55.97
46111;BME280;31849;55.992;37.252;2023-07-20T21:16:45;97990.28;;;15.30;55.95
46111;BME280;31849;55.992;37.252;2023-07-20T21:21:49;97996.72;;;15.23;55.76
46111;BME280;31849;55.992;37.252;2023-07-20T21:26:54;97995.63;;;15.08;56.27
46111;BME280;31849;55.992;37.252;2023-07-20T21:31:57;98006.59;;;14.97;56.31
46111;BME280;31849;55.992;37.252;2023-07-20T21:37:02;98011.38;;;14.87;56.23
46111;BME280;31849;55.992;37.252;2023-07-20T21:42:08;98013.69;;;14.74;56.91
46111;BME280;31849;55.992;37.252;2023-07-20T21:47:12;98012.16;;;14.69;57.20
46111;BME280;31849;55.992;37.252;2023-07-20T21:52:16;98012.28;;;14.66;56.90
46111;BME280;31849;55.992;37.252;2023-07-20T21:57:21;98014.22;;;14.60;57.19
46111;BME280;31849;55.992;37.252;2023-07-20T22:02:25;98009.38;;;14.51;57.29
46111;BME280;31849;55.992;37.252;2023-07-20T22:07:29;98020.66;;;14.52;57.48
46111;BME280;31849;55.992;37.252;2023-07-20T22:12:34;98016.25;;;14.54;57.41
46111;BME280;31849;55.992;37.252;2023-07-20T22:17:38;98018.84;;;14.54;57.66
46111;BME280;31849;55.992;37.252;2023-07-20T22:22:42;98019.69;;;14.54;57.18
46111;BME280;31849;55.992;37.252;2023-07-20T22:27:47;98022.06;;;14.60;57.45
46111;BME280;31849;55.992;37.252;2023-07-20T22:32:51;98020.28;;;14.63;57.33
46111;BME280;31849;55.992;37.252;2023-07-20T22:37:54;98018.22;;;14.69;57.18
46111;BME280;31849;55.992;37.252;2023-07-20T22:43:00;98017.00;;;14.78;57.23
46111;BME280;31849;55.992;37.252;2023-07-20T22:48:04;98006.09;;;14.68;56.64
46111;BME280;31849;55.992;37.252;2023-07-20T22:53:08;98019.88;;;14.72;57.16
46111;BME280;31849;55.992;37.252;2023-07-20T22:58:13;98017.41;;;14.69;57.04
46111;BME280;31849;55.992;37.252;2023-07-20T23:03:16;98015.81;;;14.65;57.39
46111;BME280;31849;55.992;37.252;2023-07-20T23:08:20;98018.66;;;14.58;57.33
46111;BME280;31849;55.992;37.252;2023-07-20T23:13:25;98012.88;;;14.50;57.36
46111;BME280;31849;55.992;37.252;2023-07-20T23:18:30;98018.19;;;14.49;57.58
46111;BME280;31849;55.992;37.252;2023-07-20T23:23:35;98010.66;;;14.41;57.73
46111;BME280;31849;55.992;37.252;2023-07-20T23:28:42;98014.16;;;14.41;57.96
46111;BME280;31849;55.992;37.252;2023-07-20T23:33:48;98009.88;;;14.39;57.88
46111;BME280;31849;55.992;37.252;2023-07-20T23:38:53;98014.31;;;14.37;57.67
46111;BME280;31849;55.992;37.252;2023-07-20T23:43:58;97999.69;;;14.33;57.88
46111;BME280;31849;55.992;37.252;2023-07-20T23:49:02;98010.81;;;14.16;58.51
46111;BME280;31849;55.992;37.252;2023-07-20T23:54:06;98003.03;;;14.14;58.12
46111;BME280;31849;55.992;37.252;2023-07-20T23:59:12;98007.28;;;13.95;58.72
